createdAt,value
2022-10-17T00:01:09.686Z,73.75
2022-10-17T00:06:15.899Z,73.70
2022-10-17T00:11:21.874Z,73.82
2022-10-17T00:16:25.805Z,74.10
2022-10-17T00:21:28.438Z,74.31
2022-10-17T00:26:32.685Z,74.18
2022-10-17T00:31:35.780Z,74.32
2022-10-17T00:36:38.614Z,74.51
2022-10-17T00:41:42.638Z,74.60
2022-10-17T00:46:45.287Z,74.61
2022-10-17T00:51:51.851Z,74.77
2022-10-17T00:56:56.474Z,74.87
2022-10-17T01:02:04.371Z,74.88
2022-10-17T01:07:07.016Z,75.00
2022-10-17T01:12:20.593Z,75.06
2022-10-17T01:17:34.040Z,75.00
2022-10-17T01:22:42.991Z,75.17
2022-10-17T01:28:15.063Z,75.58
2022-10-17T01:33:29.486Z,75.67
2022-10-17T01:38:37.569Z,75.73
2022-10-17T01:43:45.105Z,75.72
2022-10-17T01:48:49.239Z,75.86
2022-10-17T01:53:57.981Z,75.83
2022-10-17T01:59:06.002Z,75.91
2022-10-17T02:04:11.839Z,76.05
2022-10-17T02:09:20.216Z,76.14
2022-10-17T02:14:34.094Z,76.24
2022-10-17T02:19:49.002Z,76.31
2022-10-17T02:25:01.492Z,76.33
2022-10-17T02:30:10.219Z,76.36
2022-10-17T02:35:16.615Z,76.37
2022-10-17T02:40:22.831Z,76.41
2022-10-17T02:45:29.694Z,76.58
2022-10-17T02:50:44.282Z,76.67
2022-10-17T02:55:54.613Z,76.66
2022-10-17T03:00:57.774Z,76.70
2022-10-17T03:06:01.866Z,76.85
2022-10-17T03:11:04.647Z,76.86
2022-10-17T03:16:08.815Z,76.89
2022-10-17T03:21:13.602Z,77.02
2022-10-17T03:26:16.598Z,77.16
2022-10-17T03:31:19.283Z,77.20
2022-10-17T03:36:24.374Z,77.61
2022-10-17T03:41:27.253Z,77.92
2022-10-17T03:46:30.392Z,77.74
2022-10-17T03:51:37.134Z,77.90
2022-10-17T03:56:44.997Z,78.14
2022-10-17T04:01:51.305Z,77.98
2022-10-17T04:06:56.310Z,77.97
2022-10-17T04:11:59.065Z,77.84
2022-10-17T04:17:01.841Z,77.79
2022-10-17T04:22:08.438Z,77.80
2022-10-17T04:27:13.675Z,77.91
2022-10-17T04:32:20.404Z,77.91
2022-10-17T04:37:33.329Z,77.77
2022-10-17T04:42:41.627Z,77.78
2022-10-17T04:47:46.307Z,77.85
2022-10-17T04:52:50.378Z,77.71
2022-10-17T04:57:53.097Z,77.89
2022-10-17T05:02:56.985Z,77.81
2022-10-17T05:08:01.042Z,77.54
2022-10-17T05:13:08.555Z,77.53
2022-10-17T05:18:11.705Z,77.64
2022-10-17T05:23:18.443Z,77.57
2022-10-17T05:28:21.269Z,77.62
2022-10-17T05:33:24.384Z,77.46
2022-10-17T05:38:29.159Z,77.52
2022-10-17T05:43:33.218Z,77.46
2022-10-17T05:48:36.357Z,77.38
2022-10-17T05:53:41.720Z,77.42
2022-10-17T05:58:53.372Z,77.51
2022-10-17T06:04:13.548Z,77.20
2022-10-17T06:09:18.173Z,77.34
2022-10-17T06:14:23.936Z,77.25
2022-10-17T06:19:31.315Z,77.08
2022-10-17T06:24:35.436Z,76.94
2022-10-17T06:29:40.396Z,76.87
2022-10-17T06:34:43.099Z,76.82
2022-10-17T06:39:47.899Z,76.83
2022-10-17T06:44:54.705Z,76.75
2022-10-17T06:49:57.431Z,76.67
2022-10-17T06:55:27.704Z,76.76
2022-10-17T07:00:56.385Z,75.52
2022-10-17T07:06:01.481Z,70.80
2022-10-17T07:11:11.430Z,70.37
2022-10-17T07:16:15.517Z,70.26
2022-10-17T07:21:19.715Z,70.34
2022-10-17T07:26:23.888Z,70.33
2022-10-17T07:31:26.661Z,70.59
2022-10-17T07:36:29.988Z,70.77
2022-10-17T07:41:35.497Z,71.00
2022-10-17T07:46:39.914Z,71.36
2022-10-17T07:51:43.266Z,71.58
2022-10-17T07:56:50.653Z,71.49
2022-10-17T08:01:56.483Z,71.81
2022-10-17T08:07:11.656Z,71.78
2022-10-17T08:12:24.322Z,71.91
2022-10-17T08:17:26.957Z,72.28
2022-10-17T08:22:29.976Z,72.42
2022-10-17T08:27:34.955Z,72.43
2022-10-17T08:32:37.578Z,72.76
2022-10-17T08:37:40.156Z,72.89
2022-10-17T08:43:01.236Z,72.85
2022-10-17T08:48:09.407Z,73.32
2022-10-17T08:53:20.008Z,73.14
2022-10-17T08:58:26.185Z,73.06
2022-10-17T09:03:57.578Z,73.36
2022-10-17T09:09:16.769Z,72.75
2022-10-17T09:14:41.264Z,73.08
2022-10-17T09:19:50.104Z,72.99
2022-10-17T09:24:57.045Z,72.79
2022-10-17T09:30:40.134Z,72.89
2022-10-17T09:35:42.943Z,72.68
2022-10-17T09:40:47.176Z,72.68
2022-10-17T09:46:02.479Z,72.72
2022-10-17T09:51:15.090Z,72.60
2022-10-17T09:56:28.297Z,73.30
2022-10-17T10:01:34.920Z,73.07
2022-10-17T10:06:38.008Z,73.58
2022-10-17T10:11:48.867Z,73.22
2022-10-17T10:16:54.562Z,72.71
2022-10-17T10:21:58.952Z,72.62
2022-10-17T10:27:04.064Z,72.81
2022-10-17T10:32:19.755Z,72.92
2022-10-17T10:37:24.454Z,73.02
2022-10-17T10:42:30.607Z,73.05
2022-10-17T10:47:34.985Z,72.58
2022-10-17T10:52:44.756Z,72.72
2022-10-17T10:57:50.704Z,73.62
2022-10-17T11:03:03.976Z,74.07
2022-10-17T11:08:16.256Z,73.05
2022-10-17T11:13:24.405Z,73.00
2022-10-17T11:18:34.405Z,73.25
2022-10-17T11:23:42.462Z,73.83
2022-10-17T11:28:45.135Z,73.36
2022-10-17T11:33:53.188Z,73.29
2022-10-17T11:39:01.216Z,73.57
2022-10-17T11:44:08.668Z,73.07
2022-10-17T11:49:20.381Z,72.66
2022-10-17T11:54:27.725Z,72.47
2022-10-17T11:59:55.033Z,72.34
2022-10-17T12:05:05.657Z,72.38
2022-10-17T12:10:21.031Z,71.88
2022-10-17T12:15:32.472Z,71.11
2022-10-17T12:20:38.108Z,70.49
2022-10-17T12:25:50.694Z,70.07
2022-10-17T12:30:57.342Z,69.90
2022-10-17T12:36:43.039Z,69.70
2022-10-17T12:41:56.203Z,69.68
2022-10-17T12:46:59.996Z,69.76
2022-10-17T12:52:16.061Z,69.57
2022-10-17T12:57:24.983Z,69.37
2022-10-17T13:02:31.459Z,69.29
2022-10-17T13:07:35.568Z,68.92
2022-10-17T13:12:41.309Z,69.33
2022-10-17T13:17:44.201Z,69.43
2022-10-17T13:22:47.021Z,69.50
2022-10-17T13:27:53.667Z,69.78
2022-10-17T13:32:56.969Z,69.04
2022-10-17T13:38:03.399Z,68.95
2022-10-17T13:43:16.367Z,68.85
2022-10-17T13:48:22.714Z,68.74
2022-10-17T13:53:32.750Z,69.02
2022-10-17T13:58:43.488Z,69.21
2022-10-17T14:03:48.991Z,68.82
2022-10-17T14:09:00.517Z,68.97
2022-10-17T14:14:07.174Z,68.93
2022-10-17T14:19:24.168Z,68.89
2022-10-17T14:24:31.532Z,69.07
2022-10-17T14:29:54.270Z,69.25
2022-10-17T14:35:17.779Z,69.21
2022-10-17T14:40:24.789Z,69.13
2022-10-17T14:45:31.479Z,69.48
2022-10-17T14:50:36.206Z,69.51
2022-10-17T14:55:41.332Z,69.32
2022-10-17T15:00:45.447Z,69.38
2022-10-17T15:05:48.486Z,69.46
2022-10-17T15:10:52.679Z,69.34
2022-10-17T15:15:56.713Z,69.40
2022-10-17T15:21:04.969Z,69.34
2022-10-17T15:26:17.461Z,69.60
2022-10-17T15:31:24.282Z,69.52
2022-10-17T15:36:28.913Z,69.52
2022-10-17T15:41:33.159Z,69.80
2022-10-17T15:46:37.363Z,69.73
2022-10-17T15:51:40.474Z,69.90
2022-10-17T15:56:44.398Z,70.05
2022-10-17T16:01:49.159Z,70.56
2022-10-17T16:06:51.769Z,70.74
2022-10-17T16:11:54.480Z,70.87
2022-10-17T16:16:59.072Z,71.57
2022-10-17T16:22:04.695Z,71.63
2022-10-17T16:27:07.470Z,71.80
2022-10-17T16:32:11.708Z,71.62
2022-10-17T16:37:14.360Z,71.55
2022-10-17T16:42:17.005Z,71.49
2022-10-17T16:47:21.064Z,71.32
2022-10-17T16:52:23.993Z,71.26
2022-10-17T16:57:26.769Z,71.24
2022-10-17T17:02:31.059Z,70.88
2022-10-17T17:07:34.194Z,71.04
2022-10-17T17:12:37.703Z,70.81
2022-10-17T17:17:52.393Z,70.62
2022-10-17T17:22:57.557Z,70.72
2022-10-17T17:28:00.292Z,70.47
2022-10-17T17:33:04.547Z,70.55
2022-10-17T17:38:07.514Z,70.41
2022-10-17T17:43:10.269Z,70.56
2022-10-17T17:48:14.863Z,70.49
2022-10-17T17:53:18.927Z,70.11
2022-10-17T17:58:21.526Z,70.55
2022-10-17T18:03:26.328Z,70.37
2022-10-17T18:08:29.146Z,70.39
2022-10-17T18:13:32.280Z,70.66
2022-10-17T18:18:37.243Z,70.46
2022-10-17T18:23:40.317Z,70.19
2022-10-17T18:28:44.470Z,70.45
2022-10-17T18:33:48.596Z,69.98
2022-10-17T18:38:51.349Z,70.26
2022-10-17T18:43:56.033Z,70.15
2022-10-17T18:49:00.152Z,70.17
2022-10-17T18:54:03.598Z,70.20
2022-10-17T18:59:06.211Z,69.92
2022-10-17T19:04:10.944Z,70.32
2022-10-17T19:09:15.292Z,70.08
2022-10-17T19:14:18.022Z,70.03
2022-10-17T19:19:24.005Z,69.76
2022-10-17T19:24:28.652Z,70.07
2022-10-17T19:29:32.961Z,69.60
2022-10-17T19:34:37.558Z,70.01
2022-10-17T19:39:40.363Z,69.78
2022-10-17T19:44:43.045Z,69.58
2022-10-17T19:49:49.979Z,69.66
2022-10-17T19:54:53.035Z,69.92
2022-10-17T19:59:56.138Z,69.53
2022-10-17T20:05:17.640Z,69.30
2022-10-17T20:10:21.500Z,69.52
2022-10-17T20:15:24.154Z,69.30
2022-10-17T20:20:29.163Z,69.67
2022-10-17T20:25:33.306Z,69.42
2022-10-17T20:30:36.430Z,69.62
2022-10-17T20:35:43.282Z,69.13
2022-10-17T20:40:46.410Z,69.24
2022-10-17T20:45:51.409Z,69.26
2022-10-17T20:50:56.294Z,69.35
2022-10-17T20:56:03.755Z,69.40
2022-10-17T21:01:08.115Z,69.46
2022-10-17T21:06:12.425Z,69.17
2022-10-17T21:11:17.315Z,69.13
2022-10-17T21:16:20.680Z,69.33
2022-10-17T21:21:27.464Z,69.28
2022-10-17T21:26:32.644Z,69.40
2022-10-17T21:31:36.828Z,69.09
2022-10-17T21:36:41.528Z,69.05
2022-10-17T21:41:45.243Z,69.08
2022-10-17T21:46:48.683Z,69.18
2022-10-17T21:51:53.914Z,69.52
2022-10-17T21:56:56.548Z,69.56
2022-10-17T22:01:59.308Z,69.65
2022-10-17T22:07:03.346Z,69.99
2022-10-17T22:12:06.201Z,70.22
2022-10-17T22:17:08.825Z,70.02
2022-10-17T22:22:12.866Z,70.41
2022-10-17T22:27:15.682Z,70.35
2022-10-17T22:32:21.548Z,70.58
2022-10-17T22:37:26.591Z,70.77
2022-10-17T22:42:31.275Z,71.24
2022-10-17T22:47:33.989Z,71.12
2022-10-17T22:52:38.013Z,71.33
2022-10-17T22:57:41.365Z,71.50
2022-10-17T23:02:44.432Z,71.66
2022-10-17T23:07:48.407Z,71.80
2022-10-17T23:12:51.036Z,71.91
2022-10-17T23:17:53.765Z,71.90
2022-10-17T23:22:58.337Z,72.11
2022-10-17T23:28:01.715Z,72.44
2022-10-17T23:33:05.388Z,72.66
2022-10-17T23:38:09.749Z,72.65
2022-10-17T23:43:12.408Z,72.88
2022-10-17T23:48:15.059Z,73.09
2022-10-17T23:53:19.075Z,72.93
2022-10-17T23:58:21.744Z,73.09
